Time;durP1;ratioP1;P1;durP2;ratioP2;P2;SDS_P1;SDS_P2;PMS_P1;PMS_P2;Temp;Humidity;BMP_temperature;BMP_pressure;BME280_temperature;BME280_humidity;BME280_pressure;Samples;Min_cycle;Max_cycle;Signal;HPM_P1;HPM_P2
2023/08/02 00:00:36;;;;;;;27.40;18.25;;;20.20;99.90;;;;;;5075654;28;20459;-81
2023/08/02 00:03:02;;;;;;;30.33;18.80;;;20.20;99.90;;;;;;5074753;28;20027;-82
2023/08/02 00:05:29;;;;;;;27.02;19.05;;;20.20;99.90;;;;;;5047676;28;20021;-82
2023/08/02 00:07:55;;;;;;;35.58;18.80;;;20.20;99.90;;;;;;5070505;28;20059;-82
2023/08/02 00:10:21;;;;;;;32.90;18.75;;;20.20;99.90;;;;;;5056363;28;20571;-83
2023/08/02 00:12:51;;;;;;;26.55;20.10;;;20.10;99.90;;;;;;5074807;28;20021;-82
2023/08/02 00:15:17;;;;;;;28.55;18.70;;;20.10;99.90;;;;;;5073963;28;20103;-83
2023/08/02 00:17:43;;;;;;;32.13;19.60;;;20.10;99.90;;;;;;5056416;28;20055;-84
2023/08/02 00:20:10;;;;;;;40.05;20.65;;;20.10;99.90;;;;;;5074437;28;20496;-82
2023/08/02 00:22:35;;;;;;;34.08;19.27;;;20.10;99.90;;;;;;5075181;28;20438;-83
2023/08/02 00:25:02;;;;;;;32.78;20.13;;;20.10;99.90;;;;;;5074467;28;20039;-83
2023/08/02 00:27:28;;;;;;;26.77;19.33;;;20.10;99.90;;;;;;5053157;28;20017;-83
2023/08/02 00:29:53;;;;;;;37.22;20.17;;;20.10;99.90;;;;;;5056280;28;20028;-85
2023/08/02 00:32:20;;;;;;;30.02;19.42;;;20.10;99.90;;;;;;5064524;28;20108;-84
2023/08/02 00:34:46;;;;;;;32.92;20.42;;;20.10;99.90;;;;;;5070635;28;20032;-84
2023/08/02 00:37:12;;;;;;;27.40;19.60;;;20.00;99.90;;;;;;5074421;28;20013;-83
2023/08/02 00:39:38;;;;;;;37.00;20.23;;;20.00;99.90;;;;;;5061446;28;20045;-83
2023/08/02 00:42:04;;;;;;;24.33;18.23;;;20.00;99.90;;;;;;5077678;28;20021;-84
2023/08/02 00:44:30;;;;;;;33.83;18.48;;;20.00;99.90;;;;;;5074499;28;20025;-84
2023/08/02 00:46:56;;;;;;;35.67;20.85;;;20.00;99.90;;;;;;5075349;28;20024;-85
2023/08/02 00:49:22;;;;;;;33.30;20.77;;;20.00;99.90;;;;;;5076059;28;20070;-82
2023/08/02 00:51:48;;;;;;;31.00;20.58;;;20.00;99.90;;;;;;5074917;28;20031;-82
2023/08/02 00:54:14;;;;;;;37.08;21.13;;;19.90;99.90;;;;;;5078216;28;20021;-83
2023/08/02 00:56:40;;;;;;;26.40;19.65;;;19.90;99.90;;;;;;5056458;28;20483;-84
2023/08/02 00:59:06;;;;;;;28.85;20.48;;;19.90;99.90;;;;;;5073955;28;20037;-83
2023/08/02 01:01:32;;;;;;;39.15;21.00;;;19.90;99.90;;;;;;5074057;28;20470;-83
2023/08/02 01:03:58;;;;;;;33.38;21.33;;;19.90;99.90;;;;;;5049773;28;20048;-82
2023/08/02 01:06:42;;;;;;;33.03;20.13;;;19.80;99.90;;;;;;5067020;28;20021;-83
2023/08/02 01:09:17;;;;;;;31.08;20.08;;;19.80;99.90;;;;;;5051842;28;20025;-83
2023/08/02 01:11:58;;;;;;;39.22;20.48;;;19.80;99.90;;;;;;5045791;28;20056;-81
2023/08/02 01:14:26;;;;;;;27.17;19.13;;;19.70;99.90;;;;;;5057786;28;20100;-84
2023/08/02 01:16:52;;;;;;;26.92;19.15;;;19.70;99.90;;;;;;5053422;28;20387;-83
2023/08/02 01:19:22;;;;;;;33.92;20.73;;;19.70;99.90;;;;;;5051097;28;20486;-82
2023/08/02 01:21:49;;;;;;;28.38;19.30;;;19.70;99.90;;;;;;5062051;28;20047;-82
2023/08/02 01:24:15;;;;;;;23.27;19.88;;;19.70;99.90;;;;;;5058716;28;20033;-82
2023/08/02 01:26:46;;;;;;;24.73;20.17;;;19.60;99.90;;;;;;5097090;28;20036;-82
2023/08/02 01:29:15;;;;;;;33.17;21.58;;;19.70;99.90;;;;;;5096523;28;20036;-83
2023/08/02 01:31:42;;;;;;;29.70;20.40;;;19.60;99.90;;;;;;5107509;28;20015;-82
2023/08/02 01:34:09;;;;;;;;;;;19.60;99.90;;;;;;5093697;28;20024;-81
2023/08/02 01:36:35;;;;;;;28.15;20.00;;;19.60;99.90;;;;;;5067576;28;19919;-83
2023/08/02 01:39:01;;;;;;;29.40;20.27;;;19.60;99.90;;;;;;5057004;28;20488;-82
2023/08/02 01:41:27;;;;;;;32.15;21.85;;;19.60;99.90;;;;;;5072071;28;20017;-84
2023/08/02 01:43:53;;;;;;;29.45;23.33;;;19.60;99.90;;;;;;5074615;28;20359;-82
2023/08/02 01:46:19;;;;;;;31.30;23.35;;;19.60;99.90;;;;;;5086415;28;20085;-84
2023/08/02 01:48:45;;;;;;;32.53;22.48;;;19.60;99.90;;;;;;5041766;28;20025;-83
2023/08/02 01:51:11;;;;;;;30.98;20.35;;;19.60;99.90;;;;;;5058020;28;20021;-83
2023/08/02 01:53:36;;;;;;;30.85;22.98;;;19.60;99.90;;;;;;5075218;28;20051;-81
2023/08/02 01:56:02;;;;;;;28.13;24.98;;;19.60;99.90;;;;;;5051747;28;20029;-84
2023/08/02 01:58:30;;;;;;;31.75;25.42;;;19.60;99.90;;;;;;5057375;28;20528;-83
2023/08/02 02:00:56;;;;;;;32.50;26.30;;;19.60;99.90;;;;;;5082503;28;20028;-82
2023/08/02 02:03:22;;;;;;;38.67;26.80;;;19.70;99.90;;;;;;5088799;28;20405;-82
2023/08/02 02:05:52;;;;;;;34.55;29.02;;;19.70;99.90;;;;;;5082881;28;20025;-81
2023/08/02 02:08:18;;;;;;;31.42;24.75;;;19.70;99.90;;;;;;5079279;28;20024;-82
2023/08/02 02:10:49;;;;;;;35.17;27.77;;;19.70;99.90;;;;;;5077457;28;20379;-81
2023/08/02 02:13:17;;;;;;;31.35;26.80;;;19.70;99.90;;;;;;5058237;28;20401;-82
2023/08/02 02:15:43;;;;;;;39.83;31.13;;;19.70;99.90;;;;;;5054580;28;20029;-82
2023/08/02 02:18:09;;;;;;;37.88;31.38;;;19.70;99.90;;;;;;5076716;28;20021;-83
2023/08/02 02:20:35;;;;;;;37.05;33.17;;;19.80;99.90;;;;;;5055090;28;20033;-83
2023/08/02 02:23:00;;;;;;;42.90;32.97;;;19.80;99.90;;;;;;5051064;28;20021;-82
2023/08/02 02:25:26;;;;;;;43.05;32.97;;;19.80;99.90;;;;;;5066088;28;20052;-84
2023/08/02 02:27:52;;;;;;;35.53;31.52;;;19.90;99.90;;;;;;5072601;28;20032;-82
2023/08/02 02:30:18;;;;;;;35.47;31.77;;;19.90;99.90;;;;;;5072386;28;20021;-83
2023/08/02 02:32:44;;;;;;;40.60;30.15;;;19.90;99.90;;;;;;5074712;28;20021;-83
2023/08/02 02:35:14;;;;;;;39.55;28.77;;;19.90;99.90;;;;;;5077233;28;20020;-83
2023/08/02 02:37:41;;;;;;;39.90;30.27;;;19.90;99.90;;;;;;5076633;28;20021;-82
2023/08/02 02:40:08;;;;;;;37.92;29.75;;;20.00;99.90;;;;;;5051443;28;20114;-83
2023/08/02 02:42:40;;;;;;;37.03;29.90;;;20.00;99.90;;;;;;5069296;28;20520;-82
2023/08/02 02:45:07;;;;;;;36.05;28.55;;;19.90;99.90;;;;;;5070256;28;20025;-82
2023/08/02 02:47:36;;;;;;;32.40;28.20;;;19.90;99.90;;;;;;5066418;28;20364;-83
2023/08/02 02:50:03;;;;;;;35.88;27.13;;;19.90;99.90;;;;;;5074043;28;20066;-83
2023/08/02 02:52:29;;;;;;;32.83;26.13;;;19.90;99.90;;;;;;5077774;28;20021;-82
2023/08/02 02:54:55;;;;;;;32.83;24.98;;;20.00;99.90;;;;;;5069728;28;20035;-81
2023/08/02 02:57:21;;;;;;;30.88;25.45;;;20.10;99.90;;;;;;5053883;28;20020;-83
2023/08/02 02:59:47;;;;;;;29.55;23.63;;;20.10;99.90;;;;;;5062189;28;20025;-82
2023/08/02 03:02:12;;;;;;;30.05;24.90;;;20.20;99.90;;;;;;5046205;28;20019;-82
2023/08/02 03:04:38;;;;;;;31.10;22.85;;;20.20;99.90;;;;;;5072236;28;20016;-82
2023/08/02 03:07:05;;;;;;;34.25;23.10;;;20.30;99.90;;;;;;5072532;28;20020;-81
2023/08/02 03:09:31;;;;;;;30.65;23.40;;;20.40;99.90;;;;;;5071742;28;20482;-82
2023/08/02 03:11:56;;;;;;;30.02;23.27;;;20.40;99.90;;;;;;5072301;28;20037;-82
2023/08/02 03:14:22;;;;;;;34.97;22.88;;;20.50;99.90;;;;;;5079286;28;20027;-82
2023/08/02 03:16:48;;;;;;;33.70;23.30;;;20.50;99.90;;;;;;5075255;28;20020;-82
2023/08/02 03:19:14;;;;;;;29.77;23.38;;;20.50;99.90;;;;;;5071810;28;20040;-82
2023/08/02 03:21:41;;;;;;;32.63;23.50;;;20.60;99.90;;;;;;5065811;28;20020;-83
2023/08/02 03:24:07;;;;;;;39.92;24.65;;;20.70;99.90;;;;;;5078395;28;20027;-84
2023/08/02 03:26:33;;;;;;;35.40;23.58;;;20.80;99.90;;;;;;5087216;28;20103;-80
2023/08/02 03:28:59;;;;;;;31.02;22.25;;;20.90;99.90;;;;;;5051973;28;20021;-82
2023/08/02 03:31:25;;;;;;;34.65;25.02;;;21.00;99.90;;;;;;5053803;28;20020;-82
2023/08/02 03:33:51;;;;;;;34.53;24.50;;;21.10;99.90;;;;;;5057177;28;20138;-82
2023/08/02 03:36:17;;;;;;;35.38;23.42;;;21.10;99.90;;;;;;5072045;28;20020;-83
2023/08/02 03:38:43;;;;;;;31.27;24.65;;;21.20;99.90;;;;;;5064394;28;20039;-83
2023/08/02 03:41:09;;;;;;;33.28;24.13;;;21.20;99.90;;;;;;5071326;28;20028;-83
2023/08/02 03:43:35;;;;;;;32.60;25.27;;;21.30;99.90;;;;;;5072383;28;20036;-84
2023/08/02 03:46:04;;;;;;;32.60;24.70;;;21.40;99.90;;;;;;5079770;28;20021;-85
2023/08/02 03:48:31;;;;;;;38.88;24.60;;;21.50;99.90;;;;;;5081319;28;20013;-82
2023/08/02 03:50:57;;;;;;;39.13;25.08;;;21.50;99.80;;;;;;5079156;28;20024;-83
2023/08/02 03:53:25;;;;;;;40.42;25.23;;;21.60;99.70;;;;;;5083013;28;20024;-83
2023/08/02 03:55:51;;;;;;;36.45;25.45;;;21.60;99.40;;;;;;5076540;28;20024;-82
2023/08/02 03:58:17;;;;;;;32.50;25.98;;;21.70;99.30;;;;;;5077006;28;20013;-87
2023/08/02 04:00:43;;;;;;;37.95;25.05;;;21.70;99.20;;;;;;5079344;28;20056;-83
2023/08/02 04:03:11;;;;;;;35.25;24.77;;;21.80;98.90;;;;;;5060050;28;20027;-83
2023/08/02 04:05:38;;;;;;;34.20;26.73;;;21.90;98.90;;;;;;5077350;28;20021;-82
2023/08/02 04:08:04;;;;;;;37.92;25.88;;;22.00;98.60;;;;;;5081568;28;20386;-82
2023/08/02 04:10:30;;;;;;;36.95;24.73;;;22.10;98.60;;;;;;5080022;28;20047;-83
2023/08/02 04:12:55;;;;;;;38.08;23.98;;;22.10;98.40;;;;;;5075134;28;20029;-83
2023/08/02 04:15:21;;;;;;;34.97;25.45;;;22.20;98.20;;;;;;5077390;28;20013;-83
2023/08/02 04:17:49;;;;;;;37.67;26.52;;;22.30;97.80;;;;;;5075575;28;20035;-83
2023/08/02 04:20:15;;;;;;;35.00;26.10;;;22.30;97.60;;;;;;5078425;28;20028;-82
2023/08/02 04:22:40;;;;;;;38.65;24.20;;;22.50;97.50;;;;;;5089878;28;20051;-82
2023/08/02 04:25:06;;;;;;;35.90;25.30;;;22.60;97.30;;;;;;5076728;28;20050;-82
2023/08/02 04:27:32;;;;;;;30.80;25.95;;;22.60;96.90;;;;;;5075153;28;20025;-86
2023/08/02 04:29:58;;;;;;;29.38;25.45;;;22.60;96.80;;;;;;5070066;28;20031;-83
2023/08/02 04:32:25;;;;;;;36.15;26.08;;;22.60;97.00;;;;;;5048775;28;20489;-83
2023/08/02 04:34:51;;;;;;;37.70;25.98;;;22.60;96.90;;;;;;5076753;28;20028;-83
2023/08/02 04:37:17;;;;;;;35.58;25.85;;;22.80;96.70;;;;;;5084831;28;20028;-83
2023/08/02 04:39:43;;;;;;;33.60;24.52;;;22.90;96.50;;;;;;5068016;28;20478;-84
2023/08/02 04:42:08;;;;;;;37.58;25.98;;;23.00;96.10;;;;;;5075247;28;20013;-84
2023/08/02 04:44:34;;;;;;;34.65;25.88;;;23.00;96.00;;;;;;5059286;28;20502;-84
2023/08/02 04:47:00;;;;;;;37.13;27.92;;;23.00;95.80;;;;;;5078511;28;20044;-83
2023/08/02 04:49:26;;;;;;;33.08;25.08;;;22.90;95.80;;;;;;5059891;28;20490;-83
2023/08/02 04:51:52;;;;;;;37.70;27.27;;;22.90;95.90;;;;;;5073179;28;20456;-85
2023/08/02 04:54:18;;;;;;;32.28;25.30;;;22.80;96.10;;;;;;5078957;28;20024;-84
2023/08/02 04:56:44;;;;;;;37.10;29.15;;;23.00;95.90;;;;;;5056347;28;20067;-84
2023/08/02 04:59:10;;;;;;;29.63;23.35;;;23.00;95.90;;;;;;5069064;28;20077;-85
2023/08/02 05:01:36;;;;;;;24.50;22.00;;;23.20;95.40;;;;;;5086829;28;20024;-84
2023/08/02 05:04:02;;;;;;;24.95;21.08;;;23.20;94.80;;;;;;5074529;28;20030;-83
2023/08/02 05:06:28;;;;;;;23.13;20.70;;;23.20;94.80;;;;;;5076272;28;20336;-82
2023/08/02 05:08:53;;;;;;;26.35;19.10;;;23.30;94.60;;;;;;5076071;28;20024;-81
2023/08/02 05:11:20;;;;;;;21.42;18.77;;;23.70;94.40;;;;;;5096229;28;20382;-83
2023/08/02 05:13:45;;;;;;;19.25;17.00;;;24.70;93.60;;;;;;5085458;28;20081;-84
2023/08/02 05:16:13;;;;;;;19.90;16.55;;;25.90;91.60;;;;;;5080972;28;20032;-84
2023/08/02 05:18:39;;;;;;;24.27;16.05;;;26.80;89.50;;;;;;5078048;28;20028;-85
2023/08/02 05:21:15;;;;;;;20.40;15.45;;;27.80;85.80;;;;;;5059770;28;20033;-85
2023/08/02 05:23:42;;;;;;;17.83;15.43;;;28.80;82.10;;;;;;5099317;28;20028;-85
2023/08/02 05:26:09;;;;;;;16.05;14.43;;;;;;;;;;5062380;28;20034;-86
2023/08/02 05:28:36;;;;;;;18.73;15.23;;;29.60;78.20;;;;;;5101469;28;20089;-86
2023/08/02 05:31:03;;;;;;;18.45;14.13;;;30.40;73.40;;;;;;5068758;28;20025;-86
2023/08/02 05:33:29;;;;;;;17.48;14.27;;;30.30;70.80;;;;;;5070690;28;20016;-87
2023/08/02 05:35:55;;;;;;;17.13;15.13;;;30.10;71.20;;;;;;5057349;28;20025;-85
2023/08/02 05:38:21;;;;;;;16.50;14.73;;;29.60;72.30;;;;;;5075091;28;20366;-86
2023/08/02 05:40:47;;;;;;;23.73;17.27;;;29.60;72.70;;;;;;5076751;28;20056;-84
2023/08/02 05:43:16;;;;;;;22.30;17.20;;;29.40;72.80;;;;;;5059377;28;20413;-86
2023/08/02 05:45:42;;;;;;;18.58;16.23;;;29.30;73.20;;;;;;5073323;28;20783;-87
2023/08/02 05:48:08;;;;;;;23.52;14.55;;;29.40;73.40;;;;;;5075113;28;20029;-83
2023/08/02 05:50:33;;;;;;;18.25;15.18;;;30.20;72.30;;;;;;5057167;28;20021;-85
2023/08/02 05:52:59;;;;;;;19.23;15.18;;;31.60;68.30;;;;;;5088063;28;20032;-84
2023/08/02 05:55:26;;;;;;;26.60;14.57;;;31.60;67.70;;;;;;5056411;28;20028;-84
2023/08/02 05:57:51;;;;;;;18.77;13.82;;;32.10;66.60;;;;;;5085799;28;20536;-86
2023/08/02 06:00:18;;;;;;;18.67;13.80;;;32.70;64.90;;;;;;5077140;28;20072;-91
2023/08/02 06:02:44;;;;;;;21.33;13.38;;;33.40;63.20;;;;;;5064532;28;20032;-86
2023/08/02 06:05:10;;;;;;;22.13;14.10;;;33.80;61.00;;;;;;5061238;28;20040;-86
2023/08/02 06:07:36;;;;;;;17.80;13.00;;;33.40;61.00;;;;;;5062803;28;20059;-87
2023/08/02 06:10:02;;;;;;;17.83;14.20;;;32.30;62.60;;;;;;5055194;28;20053;-88
2023/08/02 06:12:28;;;;;;;17.75;14.55;;;31.10;64.80;;;;;;5075999;28;20497;-84
2023/08/02 06:14:54;;;;;;;22.05;13.82;;;30.70;67.10;;;;;;5061124;28;20036;-84
2023/08/02 06:17:20;;;;;;;18.17;14.47;;;31.40;66.90;;;;;;5078824;28;20020;-84
2023/08/02 06:19:46;;;;;;;21.20;12.87;;;32.80;64.00;;;;;;5066980;28;20040;-83
2023/08/02 06:22:12;;;;;;;23.80;13.30;;;34.10;61.40;;;;;;5090141;28;20024;-85
2023/08/02 06:24:38;;;;;;;19.33;12.30;;;34.80;59.00;;;;;;5073924;28;20467;-85
2023/08/02 06:27:04;;;;;;;24.03;13.50;;;35.10;57.50;;;;;;5071840;28;20308;-83
2023/08/02 06:29:30;;;;;;;19.20;16.63;;;34.90;57.30;;;;;;5069412;28;20469;-84
2023/08/02 06:31:56;;;;;;;18.27;15.60;;;34.00;58.80;;;;;;5073567;28;20021;-84
2023/08/02 06:34:22;;;;;;;24.30;15.93;;;32.90;59.90;;;;;;5051958;28;20067;-85
2023/08/02 06:36:47;;;;;;;19.63;15.10;;;32.30;62.50;;;;;;5051551;28;20120;-84
2023/08/02 06:39:13;;;;;;;21.07;16.53;;;32.20;62.80;;;;;;5062784;28;20028;-83
2023/08/02 06:41:39;;;;;;;25.80;18.83;;;32.70;62.40;;;;;;5073978;28;20017;-84
2023/08/02 06:44:05;;;;;;;23.20;17.57;;;33.90;60.90;;;;;;5046863;28;20044;-86
2023/08/02 06:46:33;;;;;;;20.27;14.33;;;35.10;58.20;;;;;;5074347;28;20052;-87
2023/08/02 06:48:59;;;;;;;23.55;15.05;;;36.20;56.00;;;;;;5073728;28;20328;-85
2023/08/02 06:51:25;;;;;;;22.05;14.93;;;;;;;;;;5057541;28;20048;-86
2023/08/02 06:53:51;;;;;;;23.92;13.50;;;37.00;54.30;;;;;;5078266;28;20482;-86
2023/08/02 06:56:18;;;;;;;17.40;12.68;;;38.60;51.30;;;;;;5055102;28;20049;-86
2023/08/02 06:58:44;;;;;;;18.17;11.40;;;39.00;49.80;;;;;;5054932;28;20045;-85
2023/08/02 07:01:10;;;;;;;;;;;;;;;;;;5066154;28;20032;-84
2023/08/02 07:03:36;;;;;;;15.27;9.25;;;39.30;49.00;;;;;;5048274;28;19966;-85
2023/08/02 07:06:08;;;;;;;15.95;9.85;;;40.30;47.50;;;;;;5063719;28;20541;-85
2023/08/02 07:08:34;;;;;;;12.57;9.25;;;39.90;46.80;;;;;;5052754;28;20032;-86
2023/08/02 07:11:00;;;;;;;18.83;10.75;;;39.60;47.50;;;;;;5058567;28;20045;-85
2023/08/02 07:13:26;;;;;;;11.20;9.38;;;39.10;47.50;;;;;;5074117;28;20032;-86
2023/08/02 07:15:52;;;;;;;23.23;9.93;;;38.70;47.90;;;;;;5084626;28;20036;-82
2023/08/02 07:18:17;;;;;;;10.88;9.63;;;37.30;48.80;;;;;;5075196;28;20042;-84
2023/08/02 07:20:44;;;;;;;13.38;11.82;;;35.80;51.10;;;;;;5093944;28;20502;-85
2023/08/02 07:23:10;;;;;;;20.92;14.18;;;34.60;53.20;;;;;;5071438;28;20088;-86
2023/08/02 07:25:36;;;;;;;18.93;13.23;;;33.40;55.70;;;;;;5064382;28;20028;-85
2023/08/02 07:28:02;;;;;;;16.97;13.53;;;32.40;58.40;;;;;;5061705;28;20021;-84
2023/08/02 07:30:28;;;;;;;30.27;15.43;;;31.60;59.60;;;;;;5060135;28;20047;-85
2023/08/02 07:32:55;;;;;;;18.00;14.90;;;31.40;60.70;;;;;;5077910;28;20285;-85
2023/08/02 07:35:21;;;;;;;24.90;14.50;;;;;;;;;;5056181;28;20638;-85
2023/08/02 07:37:47;;;;;;;21.30;14.02;;;;;;;;;;5072542;28;20028;-86
2023/08/02 07:40:13;;;;;;;25.98;17.13;;;;;;;;;;5082798;28;20044;-87
2023/08/02 07:42:40;;;;;;;16.13;14.48;;;;;;;;;;5079903;28;20380;-85
2023/08/02 07:45:08;;;;;;;34.53;15.57;;;32.20;60.80;;;;;;5059848;28;20069;-85
2023/08/02 07:47:35;;;;;;;26.55;15.60;;;37.10;52.70;;;;;;5060581;28;20067;-85
2023/08/02 07:50:01;;;;;;;19.70;11.55;;;38.30;50.30;;;;;;5079193;28;20453;-86
2023/08/02 07:52:27;;;;;;;14.02;9.98;;;;;;;;;;5080346;28;20031;-85
2023/08/02 07:54:54;;;;;;;14.88;8.35;;;39.60;48.20;;;;;;5065594;28;20025;-87
2023/08/02 07:57:23;;;;;;;12.27;7.82;;;41.50;44.80;;;;;;5059826;28;20116;-85
2023/08/02 07:59:49;;;;;;;9.90;8.13;;;;;;;;;;5078718;28;20070;-86
2023/08/02 08:02:15;;;;;;;12.55;8.65;;;42.00;43.60;;;;;;5055171;28;20031;-86
2023/08/02 08:04:41;;;;;;;10.68;8.55;;;42.40;43.10;;;;;;5076790;28;20044;-86
2023/08/02 08:07:07;;;;;;;12.30;8.23;;;41.60;42.80;;;;;;5080983;28;20017;-86
2023/08/02 08:09:35;;;;;;;14.38;9.15;;;40.20;43.90;;;;;;5081823;28;20107;-87
2023/08/02 08:12:05;;;;;;;12.18;8.93;;;40.20;45.30;;;;;;5068887;28;20033;-87
2023/08/02 08:14:32;;;;;;;11.00;8.13;;;40.90;44.20;;;;;;5068955;28;20025;-86
2023/08/02 08:16:58;;;;;;;13.88;7.93;;;41.30;43.00;;;;;;5064010;28;20386;-88
2023/08/02 08:19:27;;;;;;;18.33;10.20;;;;;;;;;;5054109;28;20040;-87
2023/08/02 08:21:54;;;;;;;15.20;11.98;;;40.30;43.30;;;;;;5063979;28;20028;-87
2023/08/02 08:24:20;;;;;;;10.40;9.27;;;37.20;47.60;;;;;;5082390;28;20028;-85
2023/08/02 08:26:47;;;;;;;10.18;8.30;;;36.00;49.60;;;;;;5049731;28;20025;-85
2023/08/02 08:29:13;;;;;;;16.15;7.93;;;35.30;50.90;;;;;;5076791;28;20029;-87
2023/08/02 08:31:39;;;;;;;12.00;7.25;;;35.80;50.80;;;;;;5063395;28;20425;-87
2023/08/02 08:34:05;;;;;;;12.95;8.18;;;36.80;49.30;;;;;;5079884;28;20111;-87
2023/08/02 08:36:31;;;;;;;12.68;9.10;;;36.30;48.40;;;;;;5078116;28;20028;-87
2023/08/02 08:38:57;;;;;;;10.23;8.93;;;35.30;50.20;;;;;;5080230;28;20033;-86
2023/08/02 08:41:23;;;;;;;10.63;8.35;;;34.30;50.60;;;;;;5070667;28;20048;-87
2023/08/02 08:43:49;;;;;;;9.65;8.20;;;33.40;53.10;;;;;;5085757;28;20024;-87
2023/08/02 08:46:17;;;;;;;11.87;8.63;;;32.40;54.20;;;;;;5069188;28;20035;-85
2023/08/02 08:48:42;;;;;;;10.57;8.50;;;31.60;56.20;;;;;;5078315;28;20055;-85
2023/08/02 08:51:10;;;;;;;18.67;11.03;;;31.40;57.70;;;;;;5085968;28;20024;-85
2023/08/02 08:53:41;;;;;;;11.80;7.78;;;31.60;57.40;;;;;;5051895;28;20020;-87
2023/08/02 08:56:07;;;;;;;9.52;8.52;;;32.50;55.50;;;;;;5057558;28;20033;-87
2023/08/02 08:58:35;;;;;;;11.10;7.90;;;32.50;55.20;;;;;;5068590;28;20013;-86
2023/08/02 09:01:04;;;;;;;9.65;7.65;;;33.70;54.10;;;;;;5088457;28;20087;-86
2023/08/02 09:03:30;;;;;;;9.32;8.52;;;34.20;52.30;;;;;;5085824;28;20017;-85
2023/08/02 09:06:05;;;;;;;10.13;8.98;;;33.30;53.20;;;;;;5043276;28;20065;-86
2023/08/02 09:08:47;;;;;;;17.00;9.30;;;32.20;55.30;;;;;;5044382;28;20065;-86
2023/08/02 09:11:15;;;;;;;17.90;10.18;;;32.40;55.40;;;;;;5034884;28;20189;-87
2023/08/02 09:13:41;;;;;;;13.73;11.63;;;32.40;55.10;;;;;;5031643;28;20044;-87
2023/08/02 09:16:10;;;;;;;11.30;8.90;;;32.00;55.40;;;;;;5028894;28;20033;-85
2023/08/02 09:18:46;;;;;;;10.95;9.52;;;31.60;55.90;;;;;;5037508;28;20030;-85
2023/08/02 09:21:15;;;;;;;11.98;8.27;;;31.90;56.70;;;;;;5035481;28;20025;-84
2023/08/02 09:23:47;;;;;;;14.48;9.93;;;32.20;55.10;;;;;;5034927;28;20076;-87
2023/08/02 09:26:20;;;;;;;9.77;8.80;;;31.90;55.10;;;;;;5038230;28;20052;-85
2023/08/02 09:29:01;;;;;;;9.88;8.70;;;32.00;55.90;;;;;;5027412;28;20437;-85
2023/08/02 09:31:29;;;;;;;17.27;9.40;;;33.20;54.20;;;;;;5017829;28;20033;-86
2023/08/02 09:33:56;;;;;;;9.10;7.78;;;35.10;51.50;;;;;;5018526;28;20059;-86
2023/08/02 09:36:31;;;;;;;11.88;7.90;;;37.40;48.40;;;;;;5045049;28;20033;-87
2023/08/02 09:39:03;;;;;;;14.50;6.90;;;39.20;45.50;;;;;;5084538;28;20025;-86
2023/08/02 09:41:30;;;;;;;6.68;5.40;;;;;;;;;;5084669;28;20020;-87
2023/08/02 09:43:56;;;;;;;5.68;5.05;;;40.50;43.40;;;;;;5090224;28;20040;-88
2023/08/02 09:46:34;;;;;;;5.22;4.68;;;42.10;40.00;;;;;;5081237;28;20040;-85
2023/08/02 09:49:20;;;;;;;13.00;10.60;;;41.80;39.60;;;;;;5033805;28;20056;-86
2023/08/02 09:51:47;;;;;;;5.85;4.93;;;41.40;40.80;;;;;;5081668;28;20019;-86
2023/08/02 09:54:14;;;;;;;7.68;6.47;;;41.20;39.50;;;;;;5062701;28;20469;-87
2023/08/02 09:56:42;;;;;;;9.77;8.18;;;40.30;39.60;;;;;;5064914;28;20044;-88
2023/08/02 09:59:09;;;;;;;6.63;6.03;;;;;;;;;;5062459;28;20098;-85
2023/08/02 10:01:36;;;;;;;10.35;6.85;;;38.50;41.40;;;;;;5079467;28;20382;-86
2023/08/02 10:04:06;;;;;;;10.68;7.78;;;36.10;46.10;;;;;;5080865;28;20028;-88
2023/08/02 10:06:42;;;;;;;8.13;6.85;;;36.40;47.50;;;;;;5082826;28;20436;-88
2023/08/02 10:09:10;;;;;;;8.85;7.18;;;37.50;47.30;;;;;;5053185;28;20437;-88
2023/08/02 10:11:47;;;;;;;9.48;7.22;;;38.50;45.20;;;;;;5069729;28;20124;-88
2023/08/02 10:14:13;;;;;;;10.13;6.18;;;39.70;44.40;;;;;;5073577;28;20042;-86
2023/08/02 10:16:41;;;;;;;9.25;5.95;;;;;;;;;;5094935;28;20020;-87
2023/08/02 10:19:10;;;;;;;12.18;6.47;;;40.60;42.60;;;;;;5066209;28;20049;-85
2023/08/02 10:21:37;;;;;;;8.70;5.72;;;40.60;41.80;;;;;;5083665;28;20017;-88
2023/08/02 10:24:03;;;;;;;8.38;6.22;;;40.60;41.80;;;;;;5085258;28;20032;-88
2023/08/02 10:26:30;;;;;;;8.75;5.68;;;41.40;41.30;;;;;;5058135;28;20036;-89
2023/08/02 10:29:00;;;;;;;7.85;5.97;;;;;;;;;;5039240;28;20033;-87
2023/08/02 10:31:27;;;;;;;10.75;6.57;;;41.60;40.70;;;;;;5058952;28;20017;-88
2023/08/02 10:33:55;;;;;;;6.82;6.07;;;41.00;40.50;;;;;;5075246;28;20036;-88
2023/08/02 10:36:23;;;;;;;11.93;7.80;;;;;;;;;;5043986;28;20481;-87
2023/08/02 10:38:53;;;;;;;7.78;7.05;;;39.10;42.40;;;;;;5059818;28;20036;-87
2023/08/02 10:41:21;;;;;;;9.57;6.38;;;35.80;45.90;;;;;;5076358;28;20031;-87
2023/08/02 10:43:53;;;;;;;8.65;7.47;;;34.40;47.40;;;;;;5075193;28;20035;-87
2023/08/02 10:46:28;;;;;;;10.45;7.82;;;33.20;49.20;;;;;;5077256;28;20114;-86
2023/08/02 10:49:09;;;;;;;13.00;8.00;;;32.40;51.40;;;;;;5076672;28;20024;-88
2023/08/02 10:51:39;;;;;;;12.23;8.40;;;32.00;52.10;;;;;;5044590;28;20056;-87
2023/08/02 10:54:21;;;;;;;10.73;8.77;;;;;;;;;;5047143;28;20482;-85
2023/08/02 10:56:54;;;;;;;13.98;9.25;;;31.70;53.40;;;;;;5053626;28;20489;-86
2023/08/02 10:59:23;;;;;;;12.63;8.93;;;31.00;55.60;;;;;;5066051;28;20032;-87
2023/08/02 11:02:10;;;;;;;9.45;8.45;;;30.60;55.80;;;;;;5076716;28;20082;-88
2023/08/02 11:04:37;;;;;;;11.48;8.88;;;30.10;56.10;;;;;;5059943;28;20428;-87
2023/08/02 11:07:21;;;;;;;12.38;9.05;;;29.70;57.40;;;;;;5081300;28;20021;-88
2023/08/02 11:09:49;;;;;;;10.85;9.52;;;29.50;57.50;;;;;;5088754;28;20052;-86
2023/08/02 11:12:17;;;;;;;15.80;10.60;;;29.50;59.00;;;;;;5076281;28;20020;-87
2023/08/02 11:14:50;;;;;;;15.07;9.68;;;29.50;58.40;;;;;;5076404;28;20027;-85
2023/08/02 11:17:22;;;;;;;12.50;8.27;;;29.50;58.70;;;;;;5059566;28;20021;-85
2023/08/02 11:19:50;;;;;;;16.42;8.70;;;29.50;58.40;;;;;;5079710;28;20040;-85
2023/08/02 11:22:17;;;;;;;11.00;8.32;;;29.30;58.20;;;;;;5059783;28;20025;-85
2023/08/02 11:24:51;;;;;;;8.68;7.78;;;29.30;59.00;;;;;;5083541;28;20025;-85
2023/08/02 11:27:26;;;;;;;11.30;7.75;;;29.20;58.80;;;;;;5065310;28;20060;-85
2023/08/02 11:30:04;;;;;;;11.60;8.40;;;29.00;59.50;;;;;;5076442;28;20032;-84
2023/08/02 11:32:32;;;;;;;8.63;7.45;;;29.00;59.30;;;;;;5056809;28;20029;-86
2023/08/02 11:34:59;;;;;;;12.10;8.27;;;29.00;59.70;;;;;;5053778;28;20029;-86
2023/08/02 11:37:26;;;;;;;11.25;7.85;;;29.00;60.10;;;;;;5069171;28;20050;-87
2023/08/02 11:39:53;;;;;;;;;;;29.00;59.80;;;;;;5059021;28;20033;-83
2023/08/02 11:42:20;;;;;;;8.35;6.60;;;;;;;;;;5055093;28;19904;-86
2023/08/02 11:44:46;;;;;;;11.30;6.80;;;;;;;;;;5080395;28;20024;-85
2023/08/02 11:47:12;;;;;;;11.30;7.50;;;28.70;60.70;;;;;;5078554;28;20078;-84
2023/08/02 11:49:49;;;;;;;18.75;12.82;;;28.60;61.90;;;;;;5079727;28;20452;-85
2023/08/02 11:52:25;;;;;;;12.65;6.63;;;28.70;61.40;;;;;;5068238;28;20086;-85
2023/08/02 11:54:53;;;;;;;7.55;6.53;;;28.90;60.80;;;;;;5060488;28;20052;-85
2023/08/02 11:57:21;;;;;;;10.95;6.28;;;29.00;60.20;;;;;;5077415;28;20020;-85
2023/08/02 11:59:49;;;;;;;7.53;6.82;;;29.10;61.40;;;;;;5048851;28;20041;-86
2023/08/02 12:02:30;;;;;;;11.40;6.25;;;29.30;59.80;;;;;;5080065;28;20023;-85
2023/08/02 12:04:57;;;;;;;14.00;7.70;;;29.20;59.60;;;;;;5056576;28;20028;-85
2023/08/02 12:07:33;;;;;;;18.25;10.18;;;29.10;60.30;;;;;;5055484;28;20350;-85
2023/08/02 12:10:03;;;;;;;10.00;6.03;;;29.10;61.40;;;;;;5063983;28;20044;-84
2023/08/02 12:12:30;;;;;;;30.67;8.88;;;29.10;61.60;;;;;;5078849;28;20273;-85
2023/08/02 12:14:57;;;;;;;28.73;9.88;;;28.90;63.40;;;;;;5092079;28;20012;-84
2023/08/02 12:17:24;;;;;;;21.35;7.63;;;28.70;64.30;;;;;;5067990;28;20039;-83
2023/08/02 12:19:51;;;;;;;17.88;8.90;;;28.50;64.90;;;;;;5063146;28;20125;-84
2023/08/02 12:22:19;;;;;;;11.95;8.07;;;;;;;;;;5059278;28;20120;-85
2023/08/02 12:25:03;;;;;;;22.05;9.05;;;;;;;;;;5080874;28;20074;-84
2023/08/02 12:27:29;;;;;;;12.32;9.25;;;;;;;;;;5083510;28;20028;-86
2023/08/02 12:30:09;;;;;;;17.00;10.07;;;;;;;;;;5062948;28;20036;-83
2023/08/02 12:32:35;;;;;;;18.50;9.98;;;;;;;;;;5080247;28;20377;-84
2023/08/02 12:35:06;;;;;;;15.05;9.90;;;;;;;;;;5094326;28;20025;-84
2023/08/02 12:37:32;;;;;;;12.40;9.15;;;;;;;;;;5057757;28;20021;-85
2023/08/02 12:39:58;;;;;;;11.23;9.57;;;;;;;;;;5048361;28;20039;-84
2023/08/02 12:42:24;;;;;;;22.08;10.85;;;;;;;;;;5082327;28;20076;-85